sensor_id;sensor_type;location;lat;lon;timestamp;temperature;humidity
35962;DHT22;22044;48.298;10.008;2023-04-01T00:01:14;7.30;99.90
35962;DHT22;22044;48.298;10.008;2023-04-01T00:04:00;7.30;99.90
35962;DHT22;22044;48.298;10.008;2023-04-01T00:06:46;7.20;99.90
35962;DHT22;22044;48.298;10.008;2023-04-01T00:09:33;7.20;99.90
35962;DHT22;22044;48.298;10.008;2023-04-01T00:12:19;7.20;99.90
35962;DHT22;22044;48.298;10.008;2023-04-01T00:15:05;7.20;99.90
35962;DHT22;22044;48.298;10.008;2023-04-01T00:17:51;7.10;99.90
35962;DHT22;22044;48.298;10.008;2023-04-01T00:20:37;7.10;99.90
35962;DHT22;22044;48.298;10.008;2023-04-01T00:23:22;7.10;99.90
35962;DHT22;22044;48.298;10.008;2023-04-01T00:26:10;7.20;99.90
35962;DHT22;22044;48.298;10.008;2023-04-01T00:28:56;7.20;99.90
35962;DHT22;22044;48.298;10.008;2023-04-01T00:31:42;7.10;99.90
35962;DHT22;22044;48.298;10.008;2023-04-01T00:34:27;7.10;99.90
35962;DHT22;22044;48.298;10.008;2023-04-01T00:37:13;7.00;99.90
35962;DHT22;22044;48.298;10.008;2023-04-01T00:39:59;7.00;99.90
35962;DHT22;22044;48.298;10.008;2023-04-01T00:42:46;7.10;99.90
35962;DHT22;22044;48.298;10.008;2023-04-01T00:45:35;7.10;99.90
35962;DHT22;22044;48.298;10.008;2023-04-01T00:48:25;7.10;99.90
35962;DHT22;22044;48.298;10.008;2023-04-01T00:51:16;7.00;99.90
35962;DHT22;22044;48.298;10.008;2023-04-01T00:54:03;7.00;99.90
35962;DHT22;22044;48.298;10.008;2023-04-01T00:56:51;6.90;99.90
35962;DHT22;22044;48.298;10.008;2023-04-01T00:59:44;6.90;99.90
35962;DHT22;22044;48.298;10.008;2023-04-01T01:02:32;6.90;99.90
35962;DHT22;22044;48.298;10.008;2023-04-01T01:05:22;6.90;99.90
35962;DHT22;22044;48.298;10.008;2023-04-01T01:11:01;6.90;99.90
35962;DHT22;22044;48.298;10.008;2023-04-01T01:13:52;6.80;99.90
35962;DHT22;22044;48.298;10.008;2023-04-01T01:16:44;6.80;99.90
35962;DHT22;22044;48.298;10.008;2023-04-01T01:19:52;6.70;99.90
35962;DHT22;22044;48.298;10.008;2023-04-01T01:22:57;6.60;99.90
35962;DHT22;22044;48.298;10.008;2023-04-01T01:25:54;6.60;99.90
35962;DHT22;22044;48.298;10.008;2023-04-01T01:28:49;6.60;99.90
35962;DHT22;22044;48.298;10.008;2023-04-01T01:31:44;6.70;99.90
35962;DHT22;22044;48.298;10.008;2023-04-01T01:34:38;6.70;99.90
35962;DHT22;22044;48.298;10.008;2023-04-01T01:37:29;6.70;99.90
35962;DHT22;22044;48.298;10.008;2023-04-01T01:40:15;6.70;99.90
35962;DHT22;22044;48.298;10.008;2023-04-01T01:43:06;6.70;99.90
35962;DHT22;22044;48.298;10.008;2023-04-01T01:45:55;6.60;99.90
35962;DHT22;22044;48.298;10.008;2023-04-01T01:48:43;6.60;99.90
35962;DHT22;22044;48.298;10.008;2023-04-01T01:51:30;6.60;99.90
35962;DHT22;22044;48.298;10.008;2023-04-01T01:54:19;6.50;99.90
35962;DHT22;22044;48.298;10.008;2023-04-01T01:57:06;6.50;99.90
35962;DHT22;22044;48.298;10.008;2023-04-01T02:00:00;6.40;99.90
35962;DHT22;22044;48.298;10.008;2023-04-01T02:02:57;6.50;99.90
35962;DHT22;22044;48.298;10.008;2023-04-01T02:05:44;6.50;99.90
35962;DHT22;22044;48.298;10.008;2023-04-01T02:08:34;6.50;99.90
35962;DHT22;22044;48.298;10.008;2023-04-01T02:11:27;6.40;99.90
35962;DHT22;22044;48.298;10.008;2023-04-01T02:14:15;6.40;99.90
35962;DHT22;22044;48.298;10.008;2023-04-01T02:17:05;6.30;99.90
35962;DHT22;22044;48.298;10.008;2023-04-01T02:19:55;6.20;99.90
35962;DHT22;22044;48.298;10.008;2023-04-01T02:22:47;6.30;99.90
35962;DHT22;22044;48.298;10.008;2023-04-01T02:25:35;6.30;99.90
35962;DHT22;22044;48.298;10.008;2023-04-01T02:28:23;6.30;99.90
35962;DHT22;22044;48.298;10.008;2023-04-01T02:31:10;6.20;99.90
35962;DHT22;22044;48.298;10.008;2023-04-01T02:33:56;6.30;99.90
35962;DHT22;22044;48.298;10.008;2023-04-01T02:36:42;6.20;99.90
35962;DHT22;22044;48.298;10.008;2023-04-01T02:39:28;6.20;99.90
35962;DHT22;22044;48.298;10.008;2023-04-01T02:42:14;6.30;99.90
35962;DHT22;22044;48.298;10.008;2023-04-01T02:45:01;6.40;99.90
35962;DHT22;22044;48.298;10.008;2023-04-01T02:47:46;6.40;99.90
35962;DHT22;22044;48.298;10.008;2023-04-01T02:50:32;6.40;99.90
35962;DHT22;22044;48.298;10.008;2023-04-01T02:53:19;6.50;99.90
35962;DHT22;22044;48.298;10.008;2023-04-01T02:56:04;6.40;99.90
35962;DHT22;22044;48.298;10.008;2023-04-01T02:58:49;6.30;99.90
35962;DHT22;22044;48.298;10.008;2023-04-01T03:01:37;6.20;99.90
35962;DHT22;22044;48.298;10.008;2023-04-01T03:04:22;6.30;99.90
35962;DHT22;22044;48.298;10.008;2023-04-01T03:07:09;6.30;99.90
35962;DHT22;22044;48.298;10.008;2023-04-01T03:09:55;6.40;99.90
35962;DHT22;22044;48.298;10.008;2023-04-01T03:12:41;6.40;99.90
35962;DHT22;22044;48.298;10.008;2023-04-01T03:15:26;6.40;99.90
35962;DHT22;22044;48.298;10.008;2023-04-01T03:18:13;6.40;99.90
35962;DHT22;22044;48.298;10.008;2023-04-01T03:21:12;6.30;99.90
35962;DHT22;22044;48.298;10.008;2023-04-01T03:23:58;6.30;99.90
35962;DHT22;22044;48.298;10.008;2023-04-01T03:26:44;6.30;99.90
35962;DHT22;22044;48.298;10.008;2023-04-01T03:29:29;6.20;99.90
35962;DHT22;22044;48.298;10.008;2023-04-01T03:32:15;6.30;99.90
35962;DHT22;22044;48.298;10.008;2023-04-01T03:35:02;6.20;99.90
35962;DHT22;22044;48.298;10.008;2023-04-01T03:37:50;6.20;99.90
35962;DHT22;22044;48.298;10.008;2023-04-01T03:40:36;6.30;99.90
35962;DHT22;22044;48.298;10.008;2023-04-01T03:43:22;6.20;99.90
35962;DHT22;22044;48.298;10.008;2023-04-01T03:46:08;6.30;99.90
35962;DHT22;22044;48.298;10.008;2023-04-01T03:48:54;6.30;99.90
35962;DHT22;22044;48.298;10.008;2023-04-01T03:51:43;6.40;99.90
35962;DHT22;22044;48.298;10.008;2023-04-01T03:54:29;6.40;99.90
35962;DHT22;22044;48.298;10.008;2023-04-01T03:57:14;6.40;99.90
35962;DHT22;22044;48.298;10.008;2023-04-01T04:00:01;6.40;99.90
35962;DHT22;22044;48.298;10.008;2023-04-01T04:02:47;6.40;99.90
35962;DHT22;22044;48.298;10.008;2023-04-01T04:05:46;6.30;99.90
35962;DHT22;22044;48.298;10.008;2023-04-01T04:08:34;6.40;99.90
35962;DHT22;22044;48.298;10.008;2023-04-01T04:11:21;6.40;99.90
35962;DHT22;22044;48.298;10.008;2023-04-01T04:14:09;6.40;99.90
35962;DHT22;22044;48.298;10.008;2023-04-01T04:16:54;6.50;99.90
35962;DHT22;22044;48.298;10.008;2023-04-01T04:19:40;6.50;99.90
35962;DHT22;22044;48.298;10.008;2023-04-01T04:22:26;6.40;99.90
35962;DHT22;22044;48.298;10.008;2023-04-01T04:25:13;6.40;99.90
35962;DHT22;22044;48.298;10.008;2023-04-01T04:27:59;6.50;99.90
35962;DHT22;22044;48.298;10.008;2023-04-01T04:30:44;6.50;99.90
35962;DHT22;22044;48.298;10.008;2023-04-01T04:33:30;6.50;99.90
35962;DHT22;22044;48.298;10.008;2023-04-01T04:36:16;6.40;99.90
35962;DHT22;22044;48.298;10.008;2023-04-01T04:39:01;6.40;99.90
35962;DHT22;22044;48.298;10.008;2023-04-01T04:41:50;6.40;99.90
35962;DHT22;22044;48.298;10.008;2023-04-01T04:44:36;6.30;99.90
35962;DHT22;22044;48.298;10.008;2023-04-01T04:47:22;6.30;99.90
35962;DHT22;22044;48.298;10.008;2023-04-01T04:50:08;6.20;99.90
35962;DHT22;22044;48.298;10.008;2023-04-01T04:52:55;6.20;99.90
35962;DHT22;22044;48.298;10.008;2023-04-01T04:55:43;6.10;99.90
35962;DHT22;22044;48.298;10.008;2023-04-01T04:58:45;6.20;99.90
35962;DHT22;22044;48.298;10.008;2023-04-01T05:01:34;6.20;99.90
35962;DHT22;22044;48.298;10.008;2023-04-01T05:04:20;6.20;99.90
35962;DHT22;22044;48.298;10.008;2023-04-01T05:07:06;6.10;99.90
35962;DHT22;22044;48.298;10.008;2023-04-01T05:09:52;6.10;99.90
35962;DHT22;22044;48.298;10.008;2023-04-01T05:12:37;6.10;99.90
35962;DHT22;22044;48.298;10.008;2023-04-01T05:15:27;6.10;99.90
35962;DHT22;22044;48.298;10.008;2023-04-01T05:18:13;6.00;99.90
35962;DHT22;22044;48.298;10.008;2023-04-01T05:20:59;6.10;99.90
35962;DHT22;22044;48.298;10.008;2023-04-01T05:23:45;6.10;99.90
35962;DHT22;22044;48.298;10.008;2023-04-01T05:26:30;6.10;99.90
35962;DHT22;22044;48.298;10.008;2023-04-01T05:29:16;6.10;99.90
35962;DHT22;22044;48.298;10.008;2023-04-01T05:32:07;6.20;99.90
35962;DHT22;22044;48.298;10.008;2023-04-01T05:34:53;6.30;99.90
35962;DHT22;22044;48.298;10.008;2023-04-01T05:37:39;6.20;99.90
35962;DHT22;22044;48.298;10.008;2023-04-01T05:40:24;6.30;99.90
35962;DHT22;22044;48.298;10.008;2023-04-01T05:43:10;6.30;99.90
35962;DHT22;22044;48.298;10.008;2023-04-01T05:45:56;6.30;99.90
35962;DHT22;22044;48.298;10.008;2023-04-01T05:49:09;6.40;99.90
35962;DHT22;22044;48.298;10.008;2023-04-01T05:51:56;6.40;99.90
35962;DHT22;22044;48.298;10.008;2023-04-01T05:54:41;6.40;99.90
35962;DHT22;22044;48.298;10.008;2023-04-01T05:57:27;6.50;99.90
35962;DHT22;22044;48.298;10.008;2023-04-01T06:00:13;6.40;99.90
35962;DHT22;22044;48.298;10.008;2023-04-01T06:03:00;6.40;99.90
35962;DHT22;22044;48.298;10.008;2023-04-01T06:05:47;6.40;99.90
35962;DHT22;22044;48.298;10.008;2023-04-01T06:08:33;6.50;99.90
35962;DHT22;22044;48.298;10.008;2023-04-01T06:11:28;6.40;99.90
35962;DHT22;22044;48.298;10.008;2023-04-01T06:14:24;6.40;99.90
35962;DHT22;22044;48.298;10.008;2023-04-01T06:17:26;6.40;99.90
35962;DHT22;22044;48.298;10.008;2023-04-01T06:20:20;6.40;99.90
35962;DHT22;22044;48.298;10.008;2023-04-01T06:23:23;6.50;99.90
35962;DHT22;22044;48.298;10.008;2023-04-01T06:26:26;6.50;99.90
35962;DHT22;22044;48.298;10.008;2023-04-01T06:29:29;6.60;99.90
35962;DHT22;22044;48.298;10.008;2023-04-01T06:32:43;6.70;99.90
35962;DHT22;22044;48.298;10.008;2023-04-01T06:35:52;6.70;99.90
35962;DHT22;22044;48.298;10.008;2023-04-01T06:38:59;6.80;99.90
35962;DHT22;22044;48.298;10.008;2023-04-01T06:42:14;6.80;99.90
35962;DHT22;22044;48.298;10.008;2023-04-01T06:45:11;6.90;99.90
35962;DHT22;22044;48.298;10.008;2023-04-01T06:48:35;6.90;99.90
35962;DHT22;22044;48.298;10.008;2023-04-01T06:51:59;6.90;99.90
35962;DHT22;22044;48.298;10.008;2023-04-01T06:55:19;7.10;99.90
35962;DHT22;22044;48.298;10.008;2023-04-01T06:58:40;7.10;99.90
35962;DHT22;22044;48.298;10.008;2023-04-01T07:01:32;7.10;99.90
35962;DHT22;22044;48.298;10.008;2023-04-01T07:04:21;7.10;99.90
35962;DHT22;22044;48.298;10.008;2023-04-01T07:07:16;7.10;99.90
35962;DHT22;22044;48.298;10.008;2023-04-01T07:10:17;7.20;99.90
35962;DHT22;22044;48.298;10.008;2023-04-01T07:13:29;7.20;99.90
35962;DHT22;22044;48.298;10.008;2023-04-01T07:16:25;7.10;99.90
35962;DHT22;22044;48.298;10.008;2023-04-01T07:19:18;7.10;99.90
35962;DHT22;22044;48.298;10.008;2023-04-01T07:22:26;7.00;99.90
35962;DHT22;22044;48.298;10.008;2023-04-01T07:25:38;7.20;99.90
35962;DHT22;22044;48.298;10.008;2023-04-01T07:28:44;7.30;99.90
35962;DHT22;22044;48.298;10.008;2023-04-01T07:32:16;7.30;99.90
35962;DHT22;22044;48.298;10.008;2023-04-01T07:35:13;7.50;99.90
35962;DHT22;22044;48.298;10.008;2023-04-01T07:38:11;7.50;99.90
35962;DHT22;22044;48.298;10.008;2023-04-01T07:41:08;7.60;99.90
35962;DHT22;22044;48.298;10.008;2023-04-01T07:44:07;7.60;99.90
35962;DHT22;22044;48.298;10.008;2023-04-01T07:47:06;7.70;99.90
35962;DHT22;22044;48.298;10.008;2023-04-01T07:50:02;7.70;99.90
35962;DHT22;22044;48.298;10.008;2023-04-01T07:53:00;7.60;99.90
35962;DHT22;22044;48.298;10.008;2023-04-01T07:55:53;7.70;99.90
35962;DHT22;22044;48.298;10.008;2023-04-01T07:58:52;7.70;99.90
35962;DHT22;22044;48.298;10.008;2023-04-01T08:02:28;7.70;99.90
35962;DHT22;22044;48.298;10.008;2023-04-01T08:05:23;7.80;99.90
35962;DHT22;22044;48.298;10.008;2023-04-01T08:08:18;7.80;99.90
35962;DHT22;22044;48.298;10.008;2023-04-01T08:11:32;7.90;99.90
35962;DHT22;22044;48.298;10.008;2023-04-01T08:14:52;7.90;99.90
35962;DHT22;22044;48.298;10.008;2023-04-01T08:17:49;8.00;99.90
35962;DHT22;22044;48.298;10.008;2023-04-01T08:20:44;8.00;99.90
35962;DHT22;22044;48.298;10.008;2023-04-01T08:23:32;8.00;99.90
35962;DHT22;22044;48.298;10.008;2023-04-01T08:26:23;8.00;99.90
35962;DHT22;22044;48.298;10.008;2023-04-01T08:29:14;8.00;99.90
35962;DHT22;22044;48.298;10.008;2023-04-01T08:32:06;8.10;99.90
35962;DHT22;22044;48.298;10.008;2023-04-01T08:35:00;8.00;99.90
35962;DHT22;22044;48.298;10.008;2023-04-01T08:37:54;7.90;99.90
35962;DHT22;22044;48.298;10.008;2023-04-01T08:40:58;8.00;99.90
35962;DHT22;22044;48.298;10.008;2023-04-01T08:44:27;8.20;99.90
35962;DHT22;22044;48.298;10.008;2023-04-01T08:47:28;8.10;99.90
35962;DHT22;22044;48.298;10.008;2023-04-01T08:50:50;8.10;99.90
35962;DHT22;22044;48.298;10.008;2023-04-01T08:57:03;8.30;99.90
35962;DHT22;22044;48.298;10.008;2023-04-01T09:00:11;8.30;99.90
35962;DHT22;22044;48.298;10.008;2023-04-01T09:03:37;8.40;99.90
35962;DHT22;22044;48.298;10.008;2023-04-01T09:06:33;8.50;99.90
35962;DHT22;22044;48.298;10.008;2023-04-01T09:09:36;8.30;99.90
35962;DHT22;22044;48.298;10.008;2023-04-01T09:16:08;8.20;99.90
35962;DHT22;22044;48.298;10.008;2023-04-01T09:19:22;8.10;99.90
35962;DHT22;22044;48.298;10.008;2023-04-01T09:22:28;8.10;99.90
35962;DHT22;22044;48.298;10.008;2023-04-01T09:25:44;7.90;99.90
35962;DHT22;22044;48.298;10.008;2023-04-01T09:28:37;7.80;99.90
35962;DHT22;22044;48.298;10.008;2023-04-01T09:31:39;7.80;99.90
35962;DHT22;22044;48.298;10.008;2023-04-01T09:35:07;7.80;99.90
35962;DHT22;22044;48.298;10.008;2023-04-01T09:38:06;7.90;99.90
35962;DHT22;22044;48.298;10.008;2023-04-01T09:41:00;7.80;99.90
35962;DHT22;22044;48.298;10.008;2023-04-01T09:44:00;7.80;99.90
35962;DHT22;22044;48.298;10.008;2023-04-01T09:47:01;7.80;99.90
35962;DHT22;22044;48.298;10.008;2023-04-01T09:50:28;7.80;99.90
35962;DHT22;22044;48.298;10.008;2023-04-01T09:53:24;7.80;99.90
35962;DHT22;22044;48.298;10.008;2023-04-01T09:56:42;7.80;99.90
35962;DHT22;22044;48.298;10.008;2023-04-01T10:00:06;7.80;99.90
35962;DHT22;22044;48.298;10.008;2023-04-01T10:03:41;7.80;99.90
35962;DHT22;22044;48.298;10.008;2023-04-01T10:07:06;7.80;99.90
35962;DHT22;22044;48.298;10.008;2023-04-01T10:10:38;7.80;99.90
35962;DHT22;22044;48.298;10.008;2023-04-01T10:14:01;7.80;99.90
35962;DHT22;22044;48.298;10.008;2023-04-01T10:20:21;7.80;99.90
35962;DHT22;22044;48.298;10.008;2023-04-01T10:23:22;7.90;99.90
35962;DHT22;22044;48.298;10.008;2023-04-01T10:30:02;8.00;99.90
35962;DHT22;22044;48.298;10.008;2023-04-01T10:33:14;8.10;99.90
35962;DHT22;22044;48.298;10.008;2023-04-01T10:36:40;8.10;99.90
35962;DHT22;22044;48.298;10.008;2023-04-01T10:39:56;8.10;99.90
35962;DHT22;22044;48.298;10.008;2023-04-01T10:43:51;8.10;99.90
35962;DHT22;22044;48.298;10.008;2023-04-01T10:50:34;8.10;99.90
35962;DHT22;22044;48.298;10.008;2023-04-01T10:53:41;8.20;99.90
35962;DHT22;22044;48.298;10.008;2023-04-01T10:56:55;8.10;99.90
35962;DHT22;22044;48.298;10.008;2023-04-01T11:04:16;8.30;99.90
35962;DHT22;22044;48.298;10.008;2023-04-01T11:08:16;8.30;99.90
35962;DHT22;22044;48.298;10.008;2023-04-01T11:15:01;8.30;99.90
35962;DHT22;22044;48.298;10.008;2023-04-01T11:21:56;8.30;99.90
35962;DHT22;22044;48.298;10.008;2023-04-01T11:28:58;8.30;99.90
35962;DHT22;22044;48.298;10.008;2023-04-01T11:31:58;8.10;99.90
35962;DHT22;22044;48.298;10.008;2023-04-01T11:34:56;8.00;99.90
35962;DHT22;22044;48.298;10.008;2023-04-01T11:37:51;7.90;99.90
35962;DHT22;22044;48.298;10.008;2023-04-01T11:41:19;7.90;99.90
35962;DHT22;22044;48.298;10.008;2023-04-01T11:44:47;7.90;99.90
35962;DHT22;22044;48.298;10.008;2023-04-01T11:47:52;7.80;99.90
35962;DHT22;22044;48.298;10.008;2023-04-01T11:50:56;7.80;99.90
35962;DHT22;22044;48.298;10.008;2023-04-01T11:53:49;7.80;99.90
35962;DHT22;22044;48.298;10.008;2023-04-01T11:56:51;7.80;99.90
35962;DHT22;22044;48.298;10.008;2023-04-01T12:00:02;7.80;99.90
35962;DHT22;22044;48.298;10.008;2023-04-01T12:03:16;7.80;99.90
35962;DHT22;22044;48.298;10.008;2023-04-01T12:06:07;7.80;99.90
35962;DHT22;22044;48.298;10.008;2023-04-01T12:08:59;7.80;99.90
35962;DHT22;22044;48.298;10.008;2023-04-01T12:11:55;7.80;99.90
35962;DHT22;22044;48.298;10.008;2023-04-01T12:14:54;7.90;99.90
35962;DHT22;22044;48.298;10.008;2023-04-01T12:17:46;7.90;99.90
35962;DHT22;22044;48.298;10.008;2023-04-01T12:20:43;8.00;99.90
35962;DHT22;22044;48.298;10.008;2023-04-01T12:23:48;8.00;99.90
35962;DHT22;22044;48.298;10.008;2023-04-01T12:26:47;8.00;99.90
35962;DHT22;22044;48.298;10.008;2023-04-01T12:29:57;8.00;99.90
35962;DHT22;22044;48.298;10.008;2023-04-01T12:32:49;8.10;99.90
35962;DHT22;22044;48.298;10.008;2023-04-01T12:35:47;8.30;99.90
35962;DHT22;22044;48.298;10.008;2023-04-01T12:38:47;8.30;99.90
35962;DHT22;22044;48.298;10.008;2023-04-01T12:41:39;8.40;99.90
35962;DHT22;22044;48.298;10.008;2023-04-01T12:44:45;8.40;99.90
35962;DHT22;22044;48.298;10.008;2023-04-01T12:54:48;8.40;99.90
35962;DHT22;22044;48.298;10.008;2023-04-01T13:07:49;8.40;99.90
35962;DHT22;22044;48.298;10.008;2023-04-01T13:10:47;8.40;99.90
35962;DHT22;22044;48.298;10.008;2023-04-01T13:13:44;8.40;99.90
35962;DHT22;22044;48.298;10.008;2023-04-01T13:16:36;8.40;99.90
35962;DHT22;22044;48.298;10.008;2023-04-01T13:19:29;8.40;99.90
35962;DHT22;22044;48.298;10.008;2023-04-01T13:22:20;8.50;99.90
35962;DHT22;22044;48.298;10.008;2023-04-01T13:25:19;8.50;99.90
35962;DHT22;22044;48.298;10.008;2023-04-01T13:28:15;8.60;99.90
35962;DHT22;22044;48.298;10.008;2023-04-01T13:31:08;8.60;99.90
35962;DHT22;22044;48.298;10.008;2023-04-01T13:34:04;8.60;99.90
35962;DHT22;22044;48.298;10.008;2023-04-01T13:37:02;8.60;99.90
35962;DHT22;22044;48.298;10.008;2023-04-01T13:40:01;8.60;99.90
35962;DHT22;22044;48.298;10.008;2023-04-01T13:42:51;8.50;99.90
35962;DHT22;22044;48.298;10.008;2023-04-01T13:45:51;8.60;99.90
35962;DHT22;22044;48.298;10.008;2023-04-01T13:48:56;8.60;99.90
35962;DHT22;22044;48.298;10.008;2023-04-01T13:55:30;8.70;99.90
35962;DHT22;22044;48.298;10.008;2023-04-01T13:58:43;8.70;99.90
35962;DHT22;22044;48.298;10.008;2023-04-01T14:01:40;8.70;99.90
35962;DHT22;22044;48.298;10.008;2023-04-01T14:04:50;8.80;99.90
35962;DHT22;22044;48.298;10.008;2023-04-01T14:07:50;8.80;99.90
35962;DHT22;22044;48.298;10.008;2023-04-01T14:10:43;8.80;99.90
35962;DHT22;22044;48.298;10.008;2023-04-01T14:13:34;8.80;99.90
35962;DHT22;22044;48.298;10.008;2023-04-01T14:16:47;8.80;99.90
35962;DHT22;22044;48.298;10.008;2023-04-01T14:26:44;9.00;99.90
35962;DHT22;22044;48.298;10.008;2023-04-01T14:29:46;9.00;99.90
35962;DHT22;22044;48.298;10.008;2023-04-01T14:32:42;9.00;99.90
35962;DHT22;22044;48.298;10.008;2023-04-01T14:35:37;9.00;99.90
35962;DHT22;22044;48.298;10.008;2023-04-01T14:38:47;9.00;99.90
35962;DHT22;22044;48.298;10.008;2023-04-01T14:41:46;9.10;99.90
35962;DHT22;22044;48.298;10.008;2023-04-01T14:47:51;9.10;99.90
35962;DHT22;22044;48.298;10.008;2023-04-01T14:50:42;9.00;99.90
35962;DHT22;22044;48.298;10.008;2023-04-01T14:53:30;9.10;99.90
35962;DHT22;22044;48.298;10.008;2023-04-01T14:56:35;9.20;99.90
35962;DHT22;22044;48.298;10.008;2023-04-01T14:59:28;9.30;99.90
35962;DHT22;22044;48.298;10.008;2023-04-01T15:02:44;9.30;99.90
35962;DHT22;22044;48.298;10.008;2023-04-01T15:05:37;9.40;99.90
35962;DHT22;22044;48.298;10.008;2023-04-01T15:08:26;9.40;99.90
35962;DHT22;22044;48.298;10.008;2023-04-01T15:11:29;9.40;99.90
35962;DHT22;22044;48.298;10.008;2023-04-01T15:14:30;9.40;99.90
35962;DHT22;22044;48.298;10.008;2023-04-01T15:17:43;9.40;99.90
35962;DHT22;22044;48.298;10.008;2023-04-01T15:24:07;9.30;99.90
35962;DHT22;22044;48.298;10.008;2023-04-01T15:27:12;9.40;99.90
35962;DHT22;22044;48.298;10.008;2023-04-01T15:30:20;9.30;99.90
35962;DHT22;22044;48.298;10.008;2023-04-01T15:33:15;9.30;99.90
35962;DHT22;22044;48.298;10.008;2023-04-01T15:36:12;9.20;99.90
35962;DHT22;22044;48.298;10.008;2023-04-01T15:39:09;9.20;99.90
35962;DHT22;22044;48.298;10.008;2023-04-01T15:42:18;9.20;99.90
35962;DHT22;22044;48.298;10.008;2023-04-01T15:45:26;9.10;99.90
35962;DHT22;22044;48.298;10.008;2023-04-01T15:48:46;9.00;99.90
35962;DHT22;22044;48.298;10.008;2023-04-01T15:51:44;9.10;99.90
35962;DHT22;22044;48.298;10.008;2023-04-01T15:54:54;9.10;99.90
35962;DHT22;22044;48.298;10.008;2023-04-01T15:57:52;9.10;99.90
35962;DHT22;22044;48.298;10.008;2023-04-01T16:00:47;9.00;99.90
35962;DHT22;22044;48.298;10.008;2023-04-01T16:03:40;9.10;99.90
35962;DHT22;22044;48.298;10.008;2023-04-01T16:06:53;9.10;99.90
35962;DHT22;22044;48.298;10.008;2023-04-01T16:09:56;9.10;99.90
35962;DHT22;22044;48.298;10.008;2023-04-01T16:12:57;9.00;99.90
35962;DHT22;22044;48.298;10.008;2023-04-01T16:15:56;8.90;99.90
35962;DHT22;22044;48.298;10.008;2023-04-01T16:18:54;8.80;99.90
35962;DHT22;22044;48.298;10.008;2023-04-01T16:21:48;8.80;99.90
35962;DHT22;22044;48.298;10.008;2023-04-01T16:24:41;8.90;99.90
35962;DHT22;22044;48.298;10.008;2023-04-01T16:27:33;8.70;99.90
35962;DHT22;22044;48.298;10.008;2023-04-01T16:30:35;8.70;99.90
35962;DHT22;22044;48.298;10.008;2023-04-01T16:33:27;8.60;99.90
35962;DHT22;22044;48.298;10.008;2023-04-01T16:36:28;8.60;99.90
35962;DHT22;22044;48.298;10.008;2023-04-01T16:39:26;8.60;99.90
35962;DHT22;22044;48.298;10.008;2023-04-01T16:42:31;8.50;99.90
35962;DHT22;22044;48.298;10.008;2023-04-01T16:45:30;8.50;99.90
35962;DHT22;22044;48.298;10.008;2023-04-01T16:48:21;8.40;99.90
35962;DHT22;22044;48.298;10.008;2023-04-01T16:51:11;8.40;99.90
35962;DHT22;22044;48.298;10.008;2023-04-01T16:54:05;8.30;99.90
35962;DHT22;22044;48.298;10.008;2023-04-01T16:56:55;8.30;99.90
35962;DHT22;22044;48.298;10.008;2023-04-01T16:59:46;8.30;99.90
35962;DHT22;22044;48.298;10.008;2023-04-01T17:02:35;8.30;99.90
35962;DHT22;22044;48.298;10.008;2023-04-01T17:05:39;8.30;99.90
35962;DHT22;22044;48.298;10.008;2023-04-01T17:08:38;8.20;99.90
35962;DHT22;22044;48.298;10.008;2023-04-01T17:11:28;8.30;99.90
35962;DHT22;22044;48.298;10.008;2023-04-01T17:14:22;8.40;99.90
35962;DHT22;22044;48.298;10.008;2023-04-01T17:17:23;8.40;99.90
35962;DHT22;22044;48.298;10.008;2023-04-01T17:20:18;8.40;99.90
35962;DHT22;22044;48.298;10.008;2023-04-01T17:23:14;8.40;99.90
35962;DHT22;22044;48.298;10.008;2023-04-01T17:26:09;8.40;99.90
35962;DHT22;22044;48.298;10.008;2023-04-01T17:29:06;8.40;99.90
35962;DHT22;22044;48.298;10.008;2023-04-01T17:32:05;8.30;99.90
35962;DHT22;22044;48.298;10.008;2023-04-01T17:35:00;8.30;99.90
35962;DHT22;22044;48.298;10.008;2023-04-01T17:37:57;8.20;99.90
35962;DHT22;22044;48.298;10.008;2023-04-01T17:40:56;8.20;99.90
35962;DHT22;22044;48.298;10.008;2023-04-01T17:43:48;8.30;99.90
35962;DHT22;22044;48.298;10.008;2023-04-01T17:46:54;8.30;99.90
35962;DHT22;22044;48.298;10.008;2023-04-01T17:49:49;8.30;99.90
35962;DHT22;22044;48.298;10.008;2023-04-01T17:52:42;8.30;99.90
35962;DHT22;22044;48.298;10.008;2023-04-01T17:55:41;8.30;99.90
35962;DHT22;22044;48.298;10.008;2023-04-01T17:58:34;8.30;99.90
35962;DHT22;22044;48.298;10.008;2023-04-01T18:01:31;8.30;99.90
35962;DHT22;22044;48.298;10.008;2023-04-01T18:04:47;8.30;99.90
35962;DHT22;22044;48.298;10.008;2023-04-01T18:07:58;8.30;99.90
35962;DHT22;22044;48.298;10.008;2023-04-01T18:10:58;8.20;99.90
35962;DHT22;22044;48.298;10.008;2023-04-01T18:13:54;8.10;99.90
35962;DHT22;22044;48.298;10.008;2023-04-01T18:16:59;8.10;99.90
35962;DHT22;22044;48.298;10.008;2023-04-01T18:20:11;8.10;99.90
35962;DHT22;22044;48.298;10.008;2023-04-01T18:23:09;8.10;99.90
35962;DHT22;22044;48.298;10.008;2023-04-01T18:26:05;8.00;99.90
35962;DHT22;22044;48.298;10.008;2023-04-01T18:28:55;8.00;99.90
35962;DHT22;22044;48.298;10.008;2023-04-01T18:31:46;7.90;99.90
35962;DHT22;22044;48.298;10.008;2023-04-01T18:34:41;7.90;99.90
35962;DHT22;22044;48.298;10.008;2023-04-01T18:37:34;7.80;99.90
35962;DHT22;22044;48.298;10.008;2023-04-01T18:40:29;7.70;99.90
35962;DHT22;22044;48.298;10.008;2023-04-01T18:43:22;7.80;99.90
35962;DHT22;22044;48.298;10.008;2023-04-01T18:46:18;7.70;99.90
35962;DHT22;22044;48.298;10.008;2023-04-01T18:49:11;7.70;99.90
35962;DHT22;22044;48.298;10.008;2023-04-01T18:52:02;7.70;99.90
35962;DHT22;22044;48.298;10.008;2023-04-01T18:58:24;7.70;99.90
35962;DHT22;22044;48.298;10.008;2023-04-01T19:01:15;7.80;99.90
35962;DHT22;22044;48.298;10.008;2023-04-01T19:04:10;7.70;99.90
35962;DHT22;22044;48.298;10.008;2023-04-01T19:06:58;7.70;99.90
35962;DHT22;22044;48.298;10.008;2023-04-01T19:09:47;7.60;99.90
35962;DHT22;22044;48.298;10.008;2023-04-01T19:12:39;7.70;99.90
35962;DHT22;22044;48.298;10.008;2023-04-01T19:15:41;7.70;99.90
35962;DHT22;22044;48.298;10.008;2023-04-01T19:21:55;7.70;99.90
35962;DHT22;22044;48.298;10.008;2023-04-01T19:24:52;7.60;99.90
35962;DHT22;22044;48.298;10.008;2023-04-01T19:27:43;7.60;99.90
35962;DHT22;22044;48.298;10.008;2023-04-01T19:30:41;7.60;99.90
35962;DHT22;22044;48.298;10.008;2023-04-01T19:33:45;7.60;99.90
35962;DHT22;22044;48.298;10.008;2023-04-01T19:36:39;7.50;99.90
35962;DHT22;22044;48.298;10.008;2023-04-01T19:39:37;7.50;99.90
35962;DHT22;22044;48.298;10.008;2023-04-01T19:42:32;7.50;99.90
35962;DHT22;22044;48.298;10.008;2023-04-01T19:45:29;7.50;99.90
35962;DHT22;22044;48.298;10.008;2023-04-01T19:48:35;7.50;99.90
35962;DHT22;22044;48.298;10.008;2023-04-01T19:51:25;7.60;99.90
35962;DHT22;22044;48.298;10.008;2023-04-01T19:54:24;7.50;99.90